createdAt,value
2019-01-12T00:00:12.429Z,99.99
2019-01-12T00:01:10.586Z,99.99
2019-01-12T00:02:10.587Z,99.99
2019-01-12T00:03:10.570Z,99.99
2019-01-12T00:04:10.557Z,99.99
2019-01-12T00:05:10.551Z,99.99
2019-01-12T00:06:10.542Z,99.99
2019-01-12T00:07:10.576Z,99.99
2019-01-12T00:08:10.533Z,99.99
2019-01-12T00:09:10.517Z,99.99
2019-01-12T00:10:10.509Z,99.99
2019-01-12T00:11:10.499Z,99.99
2019-01-12T00:12:10.544Z,99.99
2019-01-12T00:13:10.487Z,99.99
2019-01-12T00:14:10.481Z,99.99
2019-01-12T00:15:10.464Z,99.99
2019-01-12T00:16:10.455Z,99.99
2019-01-12T00:17:10.445Z,99.99
2019-01-12T00:18:10.435Z,99.99
2019-01-12T00:19:10.431Z,99.99
2019-01-12T00:20:10.422Z,99.99
2019-01-12T00:21:10.411Z,99.99
2019-01-12T00:22:10.413Z,99.99
2019-01-12T00:23:10.394Z,99.99
2019-01-12T00:24:10.390Z,99.99
2019-01-12T00:25:10.374Z,99.99
2019-01-12T00:26:10.383Z,99.99
2019-01-12T00:27:10.362Z,99.99
2019-01-12T00:28:10.349Z,99.99
2019-01-12T00:29:10.345Z,99.99
2019-01-12T00:30:10.334Z,99.99
2019-01-12T00:31:10.802Z,99.99
2019-01-12T00:32:10.315Z,99.99
2019-01-12T00:33:10.306Z,99.99
2019-01-12T00:34:10.294Z,99.99
2019-01-12T00:35:10.288Z,99.99
2019-01-12T00:36:10.277Z,99.99
2019-01-12T00:37:10.275Z,99.99
2019-01-12T00:38:11.932Z,99.99
2019-01-12T00:39:10.257Z,99.99
2019-01-12T00:40:10.248Z,99.99
2019-01-12T00:41:10.246Z,99.99
2019-01-12T00:42:10.228Z,99.99
2019-01-12T00:43:10.220Z,99.99
2019-01-12T00:44:10.215Z,99.99
2019-01-12T00:45:10.202Z,99.99
2019-01-12T00:46:10.193Z,99.99
2019-01-12T00:47:10.194Z,99.99
2019-01-12T00:48:10.179Z,99.99
2019-01-12T00:49:10.172Z,99.99
2019-01-12T00:50:10.162Z,99.99
2019-01-12T00:51:10.160Z,99.99
2019-01-12T00:52:10.144Z,99.99
2019-01-12T00:53:10.137Z,99.99
2019-01-12T00:54:10.128Z,99.99
2019-01-12T00:55:10.119Z,99.99
2019-01-12T00:56:10.108Z,99.99
2019-01-12T00:57:10.104Z,99.99
2019-01-12T00:58:10.094Z,99.99
2019-01-12T00:59:10.089Z,99.99
2019-01-12T01:00:10.077Z,99.99
2019-01-12T01:01:10.071Z,99.99
2019-01-12T01:02:10.061Z,99.99
2019-01-12T01:03:10.055Z,99.99
2019-01-12T01:04:10.046Z,99.99
2019-01-12T01:05:10.033Z,99.99
2019-01-12T01:06:10.026Z,99.99
2019-01-12T01:07:10.016Z,99.99
2019-01-12T01:08:10.011Z,99.99
2019-01-12T01:09:10.001Z,99.99
2019-01-12T01:10:09.993Z,99.99
2019-01-12T01:11:09.984Z,99.99
2019-01-12T01:12:09.977Z,99.99
2019-01-12T01:13:09.968Z,99.99
2019-01-12T01:14:09.960Z,99.99
2019-01-12T01:15:09.952Z,99.99
2019-01-12T01:16:09.941Z,99.99
2019-01-12T01:17:09.933Z,99.99
2019-01-12T01:18:09.926Z,99.99
2019-01-12T01:19:09.914Z,99.99
2019-01-12T01:20:09.908Z,99.99
2019-01-12T01:21:09.898Z,99.99
2019-01-12T01:22:09.890Z,99.99
2019-01-12T01:23:09.885Z,99.99
2019-01-12T01:24:09.875Z,99.99
2019-01-12T01:25:09.883Z,99.99
2019-01-12T01:26:09.861Z,99.99
2019-01-12T01:27:09.851Z,99.99
2019-01-12T01:28:09.841Z,99.99
2019-01-12T01:29:09.832Z,99.99
2019-01-12T01:30:09.825Z,99.99
2019-01-12T01:31:11.439Z,99.99
2019-01-12T01:32:09.805Z,99.99
2019-01-12T01:33:09.795Z,99.99
2019-01-12T01:34:09.790Z,99.99
2019-01-12T01:35:09.780Z,99.99
2019-01-12T01:36:09.772Z,99.99
2019-01-12T01:37:09.765Z,99.99
2019-01-12T01:38:09.756Z,99.99
2019-01-12T01:39:09.747Z,99.99
2019-01-12T01:40:09.744Z,99.99
2019-01-12T01:41:09.731Z,99.99
2019-01-12T01:42:09.724Z,99.99
2019-01-12T01:43:09.718Z,99.99
2019-01-12T01:44:09.707Z,99.99
2019-01-12T01:45:09.695Z,99.99
2019-01-12T01:46:09.686Z,99.99
2019-01-12T01:47:09.676Z,99.99
2019-01-12T01:48:09.675Z,99.99
2019-01-12T01:49:09.665Z,99.99
2019-01-12T01:50:09.655Z,99.99
2019-01-12T01:51:09.646Z,99.99
2019-01-12T01:52:09.638Z,99.99
2019-01-12T01:53:09.630Z,99.99
2019-01-12T01:54:11.440Z,99.99
2019-01-12T01:55:09.614Z,99.99
2019-01-12T01:56:09.606Z,99.99
2019-01-12T01:57:09.644Z,99.99
2019-01-12T01:58:09.589Z,99.99
2019-01-12T01:59:09.583Z,99.99
2019-01-12T02:00:09.572Z,99.99
2019-01-12T02:01:09.563Z,99.99
2019-01-12T02:02:09.554Z,99.99
2019-01-12T02:03:09.963Z,99.99
2019-01-12T02:04:09.534Z,99.99
2019-01-12T02:05:09.531Z,99.99
2019-01-12T02:06:09.521Z,99.99
2019-01-12T02:07:09.513Z,99.99
2019-01-12T02:08:09.506Z,99.99
2019-01-12T02:09:09.498Z,99.99
2019-01-12T02:10:09.490Z,99.99
2019-01-12T02:11:09.482Z,99.99
2019-01-12T02:12:09.475Z,99.99
2019-01-12T02:13:09.467Z,99.99
2019-01-12T02:14:09.456Z,99.99
2019-01-12T02:15:09.445Z,99.99
2019-01-12T02:16:09.440Z,99.99
2019-01-12T02:17:09.435Z,99.99
2019-01-12T02:18:09.430Z,99.99
2019-01-12T02:19:09.413Z,99.99
2019-01-12T02:20:09.410Z,99.99
2019-01-12T02:21:09.398Z,99.99
2019-01-12T02:22:09.391Z,99.99
2019-01-12T02:23:09.388Z,99.99
2019-01-12T02:24:09.372Z,99.99
2019-01-12T02:25:09.369Z,99.99
2019-01-12T02:26:09.356Z,99.99
2019-01-12T02:27:09.346Z,99.99
2019-01-12T02:28:09.338Z,99.99
2019-01-12T02:29:09.332Z,99.99
2019-01-12T02:30:09.323Z,99.99
2019-01-12T02:31:09.317Z,99.99
2019-01-12T02:32:09.308Z,99.99
2019-01-12T02:33:09.294Z,99.99
2019-01-12T02:34:09.289Z,99.99
2019-01-12T02:35:09.283Z,99.99
2019-01-12T02:36:09.275Z,99.99
2019-01-12T02:37:09.269Z,99.99
2019-01-12T02:38:09.255Z,99.99
2019-01-12T02:39:09.249Z,99.99
2019-01-12T02:40:09.238Z,99.99
2019-01-12T02:41:09.237Z,99.99
2019-01-12T02:42:09.225Z,99.99
2019-01-12T02:43:09.214Z,99.99
2019-01-12T02:44:09.204Z,99.99
2019-01-12T02:45:09.195Z,99.99
2019-01-12T02:46:09.189Z,99.99
2019-01-12T02:47:09.187Z,99.99
2019-01-12T02:48:09.177Z,99.99
2019-01-12T02:49:09.165Z,99.99
2019-01-12T02:50:09.154Z,99.99
2019-01-12T02:51:09.150Z,99.99
2019-01-12T02:52:09.141Z,99.99
2019-01-12T02:53:09.138Z,99.99
2019-01-12T02:54:09.126Z,99.99
2019-01-12T02:55:09.290Z,99.99
2019-01-12T02:56:09.108Z,99.99
2019-01-12T02:57:09.100Z,99.99
2019-01-12T02:58:09.095Z,99.99
2019-01-12T02:59:09.080Z,99.99
2019-01-12T03:00:09.076Z,99.99
2019-01-12T03:01:09.109Z,99.99
2019-01-12T03:02:09.058Z,99.99
2019-01-12T03:03:09.051Z,99.99
2019-01-12T03:04:09.043Z,99.99
2019-01-12T03:05:09.038Z,99.99
2019-01-12T03:06:09.033Z,99.99
2019-01-12T03:07:09.017Z,99.99
2019-01-12T03:08:09.018Z,99.99
2019-01-12T03:09:09.005Z,99.99
2019-01-12T03:10:08.995Z,99.99
2019-01-12T03:11:08.991Z,99.99
2019-01-12T03:12:08.977Z,99.99
2019-01-12T03:13:08.994Z,99.99
2019-01-12T03:14:08.990Z,99.99
2019-01-12T03:15:08.967Z,99.99
2019-01-12T03:16:08.942Z,99.99
2019-01-12T03:17:08.942Z,99.99
2019-01-12T03:18:08.927Z,99.99
2019-01-12T03:19:08.919Z,99.99
2019-01-12T03:20:08.921Z,99.99
2019-01-12T03:21:08.912Z,99.99
2019-01-12T03:22:08.900Z,99.99
2019-01-12T03:23:08.893Z,99.99
2019-01-12T03:24:08.882Z,99.99
2019-01-12T03:25:17.217Z,99.99
2019-01-12T03:26:08.862Z,99.99
2019-01-12T03:27:08.854Z,99.99
2019-01-12T03:28:08.842Z,99.99
2019-01-12T03:29:08.840Z,99.99
2019-01-12T03:30:08.827Z,99.99
2019-01-12T03:31:08.831Z,99.99
2019-01-12T03:32:08.809Z,99.99
2019-01-12T03:33:08.817Z,99.99
2019-01-12T03:34:08.797Z,99.99
2019-01-12T03:35:09.110Z,99.99
2019-01-12T03:36:08.780Z,99.99
2019-01-12T03:37:08.768Z,99.99
2019-01-12T03:38:08.766Z,99.99
2019-01-12T03:39:08.749Z,99.99
2019-01-12T03:40:08.743Z,99.99
2019-01-12T03:41:08.756Z,99.99
2019-01-12T03:42:08.727Z,99.99
2019-01-12T03:43:08.732Z,99.99
2019-01-12T03:44:08.711Z,99.99
2019-01-12T03:45:08.706Z,99.99
2019-01-12T03:46:08.694Z,99.99
2019-01-12T03:47:08.687Z,99.99
2019-01-12T03:48:08.677Z,99.99
2019-01-12T03:49:08.672Z,99.99
2019-01-12T03:50:08.661Z,99.99
2019-01-12T03:51:08.654Z,99.99
2019-01-12T03:52:08.650Z,99.99
2019-01-12T03:53:08.636Z,99.99
2019-01-12T03:54:08.632Z,99.99
2019-01-12T03:55:08.628Z,99.99
2019-01-12T03:56:08.618Z,99.99
2019-01-12T03:57:08.603Z,99.99
2019-01-12T03:58:08.600Z,99.99
2019-01-12T03:59:08.590Z,99.99
2019-01-12T04:00:08.579Z,99.99
2019-01-12T04:01:08.577Z,99.99
2019-01-12T04:02:08.565Z,99.99
2019-01-12T04:03:08.554Z,99.99
2019-01-12T04:04:08.555Z,99.99
2019-01-12T04:05:10.456Z,99.99
2019-01-12T04:06:09.479Z,99.99
2019-01-12T04:07:08.522Z,99.99
2019-01-12T04:08:08.515Z,99.99
2019-01-12T04:09:08.521Z,99.99
2019-01-12T04:10:08.506Z,99.99
2019-01-12T04:11:08.506Z,99.99
2019-01-12T04:12:08.490Z,99.99
2019-01-12T04:13:08.478Z,99.99
2019-01-12T04:14:08.466Z,99.99
2019-01-12T04:15:08.458Z,99.99
2019-01-12T04:16:08.456Z,99.99
2019-01-12T04:17:08.442Z,99.99
2019-01-12T04:18:35.962Z,99.99
2019-01-12T04:19:08.455Z,99.99
2019-01-12T04:20:08.431Z,99.99
2019-01-12T04:21:08.416Z,99.99
2019-01-12T04:22:08.406Z,99.99
2019-01-12T04:23:08.393Z,99.99
2019-01-12T04:24:08.391Z,99.99
2019-01-12T04:25:08.380Z,99.99
2019-01-12T04:26:08.378Z,99.99
2019-01-12T04:27:08.359Z,99.99
2019-01-12T04:28:08.379Z,99.99
2019-01-12T04:29:08.344Z,99.99
2019-01-12T04:30:08.341Z,99.99
2019-01-12T04:31:08.331Z,99.99
2019-01-12T04:32:08.328Z,99.99
2019-01-12T04:33:08.321Z,99.99
2019-01-12T04:34:08.308Z,99.99
2019-01-12T04:35:08.300Z,99.99
2019-01-12T04:36:08.293Z,99.99
2019-01-12T04:37:08.291Z,99.99
2019-01-12T04:38:08.282Z,99.99
2019-01-12T04:39:08.273Z,99.99
2019-01-12T04:40:08.263Z,99.99
2019-01-12T04:41:08.255Z,99.99
2019-01-12T04:42:08.242Z,99.99
2019-01-12T04:43:08.233Z,99.99
2019-01-12T04:44:08.226Z,99.99
2019-01-12T04:45:08.224Z,99.99
2019-01-12T04:46:08.209Z,99.99
2019-01-12T04:47:08.206Z,99.99
2019-01-12T04:48:08.192Z,99.99
2019-01-12T04:49:08.186Z,99.99
2019-01-12T04:50:08.180Z,99.99
2019-01-12T04:51:08.174Z,99.99
2019-01-12T04:52:08.165Z,99.99
2019-01-12T04:53:08.153Z,99.99
2019-01-12T04:54:08.149Z,99.99
2019-01-12T04:55:08.146Z,99.99
2019-01-12T04:56:08.132Z,99.99
2019-01-12T04:57:08.123Z,99.99
2019-01-12T04:58:08.113Z,99.99
2019-01-12T04:59:08.103Z,99.99
2019-01-12T05:00:08.099Z,99.99
2019-01-12T05:01:08.090Z,99.99
2019-01-12T05:02:08.078Z,99.99
2019-01-12T05:03:08.073Z,99.99
2019-01-12T05:04:08.063Z,99.99
2019-01-12T05:05:08.059Z,99.99
2019-01-12T05:06:08.054Z,99.99
2019-01-12T05:07:08.261Z,99.99
2019-01-12T05:08:08.032Z,99.99
2019-01-12T05:09:08.026Z,99.99
2019-01-12T05:10:08.054Z,99.99
2019-01-12T05:11:08.008Z,99.99
2019-01-12T05:12:08.003Z,99.99
2019-01-12T05:13:07.993Z,99.99
2019-01-12T05:14:07.984Z,99.99
2019-01-12T05:15:07.971Z,99.99
2019-01-12T05:16:07.968Z,99.99
2019-01-12T05:17:07.963Z,99.99
2019-01-12T05:18:07.949Z,99.99
2019-01-12T05:19:07.946Z,99.99
2019-01-12T05:20:07.935Z,99.99
2019-01-12T05:21:07.928Z,99.99
2019-01-12T05:22:07.921Z,99.99
2019-01-12T05:23:07.909Z,99.99
2019-01-12T05:24:07.908Z,99.99
2019-01-12T05:25:07.892Z,99.99
2019-01-12T05:26:07.884Z,99.99
2019-01-12T05:27:07.895Z,99.99
2019-01-12T05:28:07.872Z,99.99
2019-01-12T05:29:07.859Z,99.99
2019-01-12T05:30:07.853Z,99.99
2019-01-12T05:31:07.850Z,99.99
2019-01-12T05:32:07.834Z,99.99
2019-01-12T05:33:07.834Z,99.99
2019-01-12T05:34:07.819Z,99.99
2019-01-12T05:35:07.813Z,99.99
2019-01-12T05:36:07.811Z,99.99
2019-01-12T05:37:07.796Z,99.99
2019-01-12T05:38:08.640Z,99.99
2019-01-12T05:39:07.777Z,99.99
2019-01-12T05:40:07.774Z,99.99
2019-01-12T05:41:07.762Z,99.99
2019-01-12T05:42:07.755Z,99.99
2019-01-12T05:43:07.746Z,99.99
2019-01-12T05:44:07.738Z,99.99
2019-01-12T05:45:07.734Z,99.99
2019-01-12T05:46:07.722Z,99.99
2019-01-12T05:47:07.713Z,99.99
2019-01-12T05:48:07.708Z,99.99
2019-01-12T05:49:07.697Z,99.99
2019-01-12T05:50:07.691Z,99.99
2019-01-12T05:51:07.684Z,99.99
2019-01-12T05:52:07.669Z,99.88
2019-01-12T05:53:07.662Z,99.59
2019-01-12T05:54:07.656Z,99.30
2019-01-12T05:55:07.646Z,98.83
2019-01-12T05:56:07.638Z,99.21
2019-01-12T05:57:07.635Z,98.69
2019-01-12T05:58:07.621Z,99.11
2019-01-12T05:59:07.617Z,98.55
2019-01-12T06:00:07.608Z,98.26
2019-01-12T06:01:08.924Z,98.83
2019-01-12T06:02:07.590Z,98.45
2019-01-12T06:03:07.578Z,98.36
2019-01-12T06:04:07.613Z,98.45
2019-01-12T06:05:07.570Z,98.93
2019-01-12T06:06:07.558Z,98.26
2019-01-12T06:07:07.555Z,97.97
2019-01-12T06:08:07.541Z,97.41
2019-01-12T06:09:07.537Z,97.78
2019-01-12T06:10:07.523Z,98.74
2019-01-12T06:11:07.520Z,98.83
2019-01-12T06:12:07.508Z,98.93
2019-01-12T06:13:07.501Z,98.45
2019-01-12T06:14:07.489Z,98.83
2019-01-12T06:15:07.485Z,98.36
2019-01-12T06:16:07.481Z,98.26
2019-01-12T06:17:07.472Z,98.17
2019-01-12T06:18:07.468Z,97.78
2019-01-12T06:19:07.453Z,98.26
2019-01-12T06:20:07.444Z,99.40
2019-01-12T06:21:08.970Z,99.02
2019-01-12T06:22:07.428Z,98.93
2019-01-12T06:23:07.423Z,99.02
2019-01-12T06:24:07.411Z,99.40
2019-01-12T06:25:07.405Z,98.83
2019-01-12T06:26:07.389Z,98.45
2019-01-12T06:27:07.392Z,97.78
2019-01-12T06:28:07.379Z,97.31
2019-01-12T06:29:07.374Z,96.74
2019-01-12T06:30:07.359Z,96.12
2019-01-12T06:31:07.352Z,95.08
2019-01-12T06:32:07.355Z,93.60
2019-01-12T06:33:08.967Z,92.51
2019-01-12T06:34:07.338Z,91.42
2019-01-12T06:35:07.325Z,90.47
2019-01-12T06:36:07.313Z,90.19
2019-01-12T06:37:07.302Z,90.00
2019-01-12T06:38:07.296Z,90.09
2019-01-12T06:39:07.419Z,89.38
2019-01-12T06:40:07.280Z,88.85
2019-01-12T06:41:07.276Z,89.80
2019-01-12T06:42:07.266Z,89.04
2019-01-12T06:43:07.255Z,89.38
2019-01-12T06:44:07.246Z,88.47
2019-01-12T06:45:07.238Z,89.38
2019-01-12T06:46:07.243Z,87.48
2019-01-12T06:47:07.220Z,87.48
2019-01-12T06:48:07.212Z,87.29
2019-01-12T06:49:07.203Z,86.82
2019-01-12T06:50:07.205Z,85.20
2019-01-12T06:51:07.188Z,85.20
2019-01-12T06:52:07.181Z,85.58
2019-01-12T06:53:07.176Z,85.58
2019-01-12T06:54:07.159Z,85.49
2019-01-12T06:55:07.157Z,85.49
2019-01-12T06:56:10.837Z,83.97
2019-01-12T06:57:07.137Z,84.53
2019-01-12T06:58:07.129Z,83.87
2019-01-12T06:59:07.120Z,84.06
2019-01-12T07:00:07.112Z,85.49
2019-01-12T07:01:07.099Z,86.05
2019-01-12T07:02:07.095Z,85.68
2019-01-12T07:03:07.085Z,85.86
2019-01-12T07:04:07.080Z,86.15
2019-01-12T07:05:07.070Z,86.24
2019-01-12T07:06:07.069Z,87.57
2019-01-12T07:07:08.971Z,86.82
2019-01-12T07:08:09.010Z,87.76
2019-01-12T07:09:07.039Z,87.67
2019-01-12T07:10:07.802Z,87.48
2019-01-12T07:11:07.017Z,88.43
2019-01-12T07:12:07.020Z,88.43
2019-01-12T07:13:07.004Z,88.34
2019-01-12T07:14:06.992Z,87.76
2019-01-12T07:15:06.989Z,88.24
2019-01-12T07:16:06.980Z,87.48
2019-01-12T07:17:06.972Z,87.76
2019-01-12T07:18:08.947Z,88.62
2019-01-12T07:19:06.952Z,88.81
2019-01-12T07:20:06.945Z,89.47
2019-01-12T07:21:06.939Z,90.23
2019-01-12T07:22:06.928Z,89.67
2019-01-12T07:23:06.919Z,90.90
2019-01-12T07:24:06.911Z,91.47
2019-01-12T07:25:06.908Z,91.99
2019-01-12T07:26:06.902Z,92.27
2019-01-12T07:27:06.892Z,91.42
2019-01-12T07:28:06.877Z,92.99
2019-01-12T07:29:06.873Z,92.08
2019-01-12T07:30:06.861Z,92.51
2019-01-12T07:31:06.852Z,92.80
2019-01-12T07:32:06.845Z,93.27
2019-01-12T07:33:08.472Z,93.08
2019-01-12T07:34:06.827Z,93.04
2019-01-12T07:35:06.820Z,93.41
2019-01-12T07:36:06.835Z,93.32
2019-01-12T07:37:06.805Z,93.41
2019-01-12T07:38:06.805Z,93.99
2019-01-12T07:39:06.802Z,94.65
2019-01-12T07:40:06.780Z,94.18
2019-01-12T07:41:06.780Z,94.65
2019-01-12T07:42:06.767Z,94.18
2019-01-12T07:43:06.775Z,94.37
2019-01-12T07:44:06.748Z,94.18
2019-01-12T07:45:06.759Z,95.70
2019-01-12T07:46:06.724Z,95.89
2019-01-12T07:47:06.718Z,95.32
2019-01-12T07:48:06.716Z,95.60
2019-01-12T07:49:06.708Z,94.18
2019-01-12T07:50:06.698Z,94.84
2019-01-12T07:51:06.688Z,93.41
2019-01-12T07:52:06.682Z,92.94
2019-01-12T07:53:06.673Z,94.56
2019-01-12T07:54:06.672Z,94.37
2019-01-12T07:55:06.656Z,94.93
2019-01-12T07:56:06.647Z,95.41
2019-01-12T07:57:06.638Z,95.51
2019-01-12T07:58:06.642Z,94.46
2019-01-12T07:59:06.622Z,93.70
2019-01-12T08:00:06.617Z,93.04
2019-01-12T08:01:06.606Z,93.32
2019-01-12T08:02:06.600Z,93.99
2019-01-12T08:03:06.588Z,93.99
2019-01-12T08:04:06.581Z,93.46
2019-01-12T08:05:06.937Z,94.18
2019-01-12T08:06:06.569Z,94.03
2019-01-12T08:07:06.554Z,93.41
2019-01-12T08:08:06.555Z,93.60
2019-01-12T08:09:06.546Z,94.03
2019-01-12T08:10:06.533Z,93.41
2019-01-12T08:11:06.545Z,95.79
2019-01-12T08:12:06.512Z,94.74
2019-01-12T08:13:06.506Z,95.79
2019-01-12T08:14:06.498Z,96.36
2019-01-12T08:15:06.488Z,96.08
2019-01-12T08:16:06.481Z,95.98
2019-01-12T08:17:06.472Z,96.26
2019-01-12T08:18:06.465Z,95.79
2019-01-12T08:19:06.457Z,97.41
2019-01-12T08:20:06.449Z,98.17
2019-01-12T08:21:06.444Z,97.69
2019-01-12T08:22:06.434Z,99.69
2019-01-12T08:23:06.424Z,99.50
2019-01-12T08:24:06.418Z,99.78
2019-01-12T08:25:06.407Z,99.99
2019-01-12T08:26:06.400Z,99.59
2019-01-12T08:27:06.392Z,99.99
2019-01-12T08:28:07.981Z,99.99
2019-01-12T08:29:06.376Z,99.99
2019-01-12T08:30:06.367Z,99.99
2019-01-12T08:31:06.356Z,99.99
2019-01-12T08:32:06.346Z,99.99
2019-01-12T08:33:06.352Z,99.99
2019-01-12T08:34:06.331Z,99.99
2019-01-12T08:35:06.328Z,99.99
2019-01-12T08:36:06.316Z,99.99
2019-01-12T08:37:06.310Z,99.99
2019-01-12T08:38:06.324Z,99.99
2019-01-12T08:39:06.316Z,99.99
2019-01-12T08:40:06.290Z,99.99
2019-01-12T08:41:06.280Z,99.99
2019-01-12T08:42:06.946Z,99.99
2019-01-12T08:43:06.261Z,99.99
2019-01-12T08:44:06.255Z,99.99
2019-01-12T08:45:06.246Z,99.99
2019-01-12T08:46:06.239Z,99.99
2019-01-12T08:47:06.230Z,99.99
2019-01-12T08:48:06.221Z,99.99
2019-01-12T08:49:06.212Z,99.99
2019-01-12T08:50:06.208Z,99.99
2019-01-12T08:51:06.242Z,99.99
2019-01-12T08:52:06.189Z,99.99
2019-01-12T08:53:06.182Z,99.99
2019-01-12T08:54:06.175Z,99.99
2019-01-12T08:55:06.175Z,99.99
2019-01-12T08:56:06.159Z,99.99
2019-01-12T08:57:06.152Z,99.99
2019-01-12T08:58:06.136Z,99.99
2019-01-12T08:59:06.132Z,99.99
2019-01-12T09:00:06.127Z,99.99
2019-01-12T09:01:06.116Z,99.99
2019-01-12T09:02:06.112Z,99.99
2019-01-12T09:03:06.098Z,99.99
2019-01-12T09:04:06.099Z,99.99
2019-01-12T09:05:06.085Z,99.99
2019-01-12T09:06:06.081Z,99.99
2019-01-12T09:07:06.067Z,99.99
2019-01-12T09:08:06.067Z,99.99
2019-01-12T09:09:06.057Z,99.99
2019-01-12T09:10:06.046Z,99.99
2019-01-12T09:11:06.038Z,99.99
2019-01-12T09:12:06.025Z,99.99
2019-01-12T09:13:06.019Z,99.99
2019-01-12T09:14:06.013Z,99.99
2019-01-12T09:15:06.002Z,99.99
2019-01-12T09:16:06.001Z,99.99
2019-01-12T09:17:05.993Z,99.99
2019-01-12T09:18:05.983Z,99.99
2019-01-12T09:19:05.986Z,99.99
2019-01-12T09:20:05.970Z,99.99
2019-01-12T09:21:05.959Z,99.99
2019-01-12T09:22:05.966Z,99.99
2019-01-12T09:23:05.948Z,99.99
2019-01-12T09:24:05.931Z,99.99
2019-01-12T09:25:05.926Z,99.99
2019-01-12T09:26:05.918Z,99.99
2019-01-12T09:27:05.910Z,99.99
2019-01-12T09:28:05.914Z,99.99
2019-01-12T09:29:05.897Z,99.99
2019-01-12T09:30:05.890Z,99.99
2019-01-12T09:31:05.879Z,99.99
2019-01-12T09:32:05.874Z,99.99
2019-01-12T09:33:05.861Z,99.99
2019-01-12T09:34:05.861Z,99.99
2019-01-12T09:35:05.848Z,99.99
2019-01-12T09:36:05.843Z,99.99
2019-01-12T09:37:05.834Z,99.99
2019-01-12T09:38:05.826Z,99.99
2019-01-12T09:39:05.819Z,99.99
2019-01-12T09:40:05.816Z,99.99
2019-01-12T09:41:05.799Z,99.99
2019-01-12T09:42:05.805Z,99.99
2019-01-12T09:43:05.785Z,99.99
2019-01-12T09:44:05.784Z,99.99
2019-01-12T09:45:05.772Z,99.99
2019-01-12T09:46:05.770Z,99.99
2019-01-12T09:47:05.758Z,99.99
2019-01-12T09:48:05.756Z,99.99
2019-01-12T09:49:05.744Z,99.99
2019-01-12T09:50:07.488Z,99.99
2019-01-12T09:51:05.729Z,99.99
2019-01-12T09:52:05.724Z,99.99
2019-01-12T09:53:05.715Z,99.99
2019-01-12T09:54:05.706Z,99.99
2019-01-12T09:55:05.704Z,99.99
2019-01-12T09:56:05.695Z,99.99
2019-01-12T09:57:05.686Z,99.99
2019-01-12T09:58:05.676Z,99.99
2019-01-12T09:59:05.672Z,99.99
2019-01-12T10:00:05.662Z,99.99
2019-01-12T10:01:05.664Z,99.99
2019-01-12T10:02:05.648Z,99.99
2019-01-12T10:03:05.642Z,99.99
2019-01-12T10:04:05.634Z,99.99
2019-01-12T10:05:05.624Z,99.99
2019-01-12T10:06:05.631Z,99.99
2019-01-12T10:07:05.609Z,99.99
2019-01-12T10:08:05.602Z,99.99
2019-01-12T10:09:05.611Z,99.99
2019-01-12T10:10:07.503Z,99.99
2019-01-12T10:11:05.579Z,99.99
2019-01-12T10:12:05.576Z,99.99
2019-01-12T10:13:05.578Z,99.99
2019-01-12T10:14:06.112Z,99.99
2019-01-12T10:15:05.575Z,99.99
2019-01-12T10:16:05.542Z,99.99
2019-01-12T10:17:05.539Z,99.99
2019-01-12T10:18:05.525Z,99.99
2019-01-12T10:19:05.523Z,99.99
2019-01-12T10:20:05.515Z,99.99
2019-01-12T10:21:05.534Z,99.99
2019-01-12T10:22:05.496Z,99.99
2019-01-12T10:23:05.491Z,99.99
2019-01-12T10:24:05.546Z,99.99
2019-01-12T10:25:05.473Z,99.99
2019-01-12T10:26:05.503Z,99.99
2019-01-12T10:27:05.463Z,99.99
2019-01-12T10:28:05.454Z,99.99
2019-01-12T10:29:05.449Z,99.99
2019-01-12T10:30:05.440Z,99.99
2019-01-12T10:31:05.438Z,99.99
2019-01-12T10:32:05.431Z,99.99
2019-01-12T10:33:05.415Z,99.99
2019-01-12T10:34:05.430Z,99.99
2019-01-12T10:35:05.401Z,99.99
2019-01-12T10:36:05.393Z,99.99
2019-01-12T10:37:05.386Z,99.99
2019-01-12T10:38:05.394Z,99.99
2019-01-12T10:39:05.376Z,99.99
2019-01-12T10:40:05.367Z,99.99
2019-01-12T10:41:05.355Z,99.99
2019-01-12T10:42:05.349Z,99.99
2019-01-12T10:43:05.345Z,99.99
2019-01-12T10:44:05.354Z,99.99
2019-01-12T10:45:05.329Z,99.99
2019-01-12T10:46:05.320Z,99.99
2019-01-12T10:47:05.314Z,99.99
2019-01-12T10:48:05.307Z,99.99
2019-01-12T10:49:05.300Z,99.99
2019-01-12T10:50:05.296Z,99.99
2019-01-12T10:51:05.287Z,99.99
2019-01-12T10:52:05.271Z,99.99
2019-01-12T10:53:06.997Z,99.99
2019-01-12T10:54:05.263Z,99.99
2019-01-12T10:55:07.018Z,99.99
2019-01-12T10:56:05.275Z,99.99
2019-01-12T10:57:05.758Z,99.99
2019-01-12T10:58:05.239Z,99.99
2019-01-12T10:59:05.222Z,99.99
2019-01-12T11:00:05.215Z,99.99
2019-01-12T11:01:05.208Z,99.99
2019-01-12T11:02:05.204Z,99.99
2019-01-12T11:03:05.200Z,99.99
2019-01-12T11:04:05.201Z,99.99
2019-01-12T11:05:05.189Z,99.99
2019-01-12T11:06:05.168Z,99.99
2019-01-12T11:07:05.166Z,99.99
2019-01-12T11:08:05.164Z,99.99
2019-01-12T11:09:05.149Z,99.99
2019-01-12T11:10:05.141Z,99.99
2019-01-12T11:11:05.137Z,99.99
2019-01-12T11:12:05.135Z,99.99
2019-01-12T11:13:05.118Z,99.99
2019-01-12T11:14:05.116Z,99.99
2019-01-12T11:15:05.119Z,99.99
2019-01-12T11:16:05.100Z,99.99
2019-01-12T11:17:05.094Z,99.99
2019-01-12T11:18:05.083Z,99.99
2019-01-12T11:19:05.076Z,99.99
2019-01-12T11:20:05.071Z,99.99
2019-01-12T11:21:05.057Z,99.99
2019-01-12T11:22:05.057Z,99.99
2019-01-12T11:23:05.054Z,99.99
2019-01-12T11:24:05.038Z,99.99
2019-01-12T11:25:05.033Z,99.99
2019-01-12T11:26:05.054Z,99.99
2019-01-12T11:27:05.013Z,99.99
2019-01-12T11:28:05.009Z,99.99
2019-01-12T11:29:05.002Z,99.99
2019-01-12T11:30:04.991Z,99.99
2019-01-12T11:31:04.993Z,99.99
2019-01-12T11:32:04.977Z,99.99
2019-01-12T11:33:04.971Z,99.99
2019-01-12T11:34:04.966Z,99.99
2019-01-12T11:35:04.957Z,99.99
2019-01-12T11:36:04.948Z,99.99
2019-01-12T11:37:04.944Z,99.99
2019-01-12T11:38:04.945Z,99.99
2019-01-12T11:39:04.930Z,99.99
2019-01-12T11:40:04.914Z,99.99
2019-01-12T11:41:04.919Z,99.99
2019-01-12T11:42:04.900Z,99.99
2019-01-12T11:43:04.904Z,99.99
2019-01-12T11:44:04.893Z,99.99
2019-01-12T11:45:04.886Z,99.99
2019-01-12T11:46:05.274Z,99.99
2019-01-12T11:47:04.868Z,99.99
2019-01-12T11:48:04.862Z,99.99
2019-01-12T11:49:04.853Z,99.99
2019-01-12T11:50:04.848Z,99.99
2019-01-12T11:51:04.836Z,99.99
2019-01-12T11:52:04.831Z,99.99
2019-01-12T11:53:04.828Z,99.99
2019-01-12T11:54:04.816Z,99.99
2019-01-12T11:55:04.812Z,99.99
2019-01-12T11:56:04.799Z,99.99
2019-01-12T11:57:04.800Z,99.99
2019-01-12T11:58:04.782Z,99.99
2019-01-12T11:59:04.779Z,99.99
2019-01-12T12:00:04.777Z,99.99
2019-01-12T12:01:04.989Z,99.99
2019-01-12T12:02:04.762Z,99.99
2019-01-12T12:03:04.759Z,99.99
2019-01-12T12:04:04.741Z,99.99
2019-01-12T12:05:04.729Z,99.99
2019-01-12T12:06:04.735Z,99.99
2019-01-12T12:07:04.728Z,99.99
2019-01-12T12:08:05.095Z,99.99
2019-01-12T12:09:04.703Z,99.99
2019-01-12T12:10:04.692Z,99.99
2019-01-12T12:11:04.683Z,99.99
2019-01-12T12:12:04.682Z,99.99
2019-01-12T12:13:04.694Z,99.99
2019-01-12T12:14:04.673Z,99.99
2019-01-12T12:15:04.664Z,99.99
2019-01-12T12:16:04.663Z,99.99
2019-01-12T12:17:04.662Z,99.99
2019-01-12T12:18:04.657Z,99.99
2019-01-12T12:19:04.631Z,99.99
2019-01-12T12:20:04.620Z,99.99
2019-01-12T12:21:04.614Z,99.99
2019-01-12T12:22:04.609Z,99.99
2019-01-12T12:23:04.600Z,99.99
2019-01-12T12:24:04.594Z,99.99
2019-01-12T12:25:04.584Z,99.99
2019-01-12T12:26:04.580Z,99.99
2019-01-12T12:27:05.162Z,99.99
2019-01-12T12:28:04.563Z,99.99
2019-01-12T12:29:04.564Z,99.99
2019-01-12T12:30:04.559Z,99.99
2019-01-12T12:31:04.569Z,99.99
2019-01-12T12:32:04.558Z,99.99
2019-01-12T12:33:04.532Z,99.99
2019-01-12T12:34:04.518Z,99.99
2019-01-12T12:35:04.512Z,99.99
2019-01-12T12:36:04.501Z,99.99
2019-01-12T12:37:04.500Z,99.99
2019-01-12T12:38:04.492Z,99.99
2019-01-12T12:39:04.498Z,99.99
2019-01-12T12:40:04.483Z,99.99
2019-01-12T12:41:04.460Z,99.99
2019-01-12T12:42:04.465Z,99.99
2019-01-12T12:43:04.457Z,99.99
2019-01-12T12:44:04.445Z,99.99
2019-01-12T12:45:04.434Z,99.99
2019-01-12T12:46:05.433Z,99.99
2019-01-12T12:47:04.422Z,99.99
2019-01-12T12:48:04.415Z,99.99
2019-01-12T12:49:04.407Z,99.99
2019-01-12T12:50:04.398Z,99.99
2019-01-12T12:51:04.392Z,99.99
2019-01-12T12:52:04.390Z,99.99